Etusivu
METAR-TAF:

METAR-TAF

Lentoasemat :

Waco, Texas, Yhdysvallat

Leveyspiiri: 31-38-16N, Pituuspiiri: 097-04-27W, korkeus merenpinnasta: 143 m

Tämänhetkinen sää

Tämä raportti tehtiin 19 minuuttia sitten, kello 15.55 UTC
Tuuli 11 kn etelästä/lounaasta puuskistuen 18 kn:hen
Lämpötila 32°C
Kosteus 56%
Ilmanpaine 1019 hPa
Näkyvyys: 16.1 km
Hajanaisia pilviä 3500 ft:n korkeudessa

METAR: KCNW 101555Z 20011G18KT 10SM SCT035 32/22 A3009

Aika: 10:14 (16:14 UTC)


TAF: puuttuu

Säähavainnot ja -ennusteet yli 4000 lentoasemalta (METAR- ja TAF-raportit).

Käytössä olevat sääasemat on merkitty karttaan keltaisilla ja punaisilla pisteillä.

Aseta hiiri pisteen päälle nähdäksesi sääaseman nimen.

Klikkaa sitten nähdäksesi säähavainnot ja -ennusteet.

Kartan vaihtaminen: klikkaa mustalla rastilla varustettuja vihreitä pisteitä, niin voit zoomata sisään; viivalla varustettua vihreää pistettä, niin voit zoomata ulos tai vihreitä nuolia, niin pääset viereisille kartoille.


METAR-TAF: